createdAt,value
2018-04-06T00:01:47.601Z,3.22
2018-04-06T00:04:15.526Z,3.00
2018-04-06T00:06:43.507Z,2.90
2018-04-06T00:09:11.463Z,3.50
2018-04-06T00:11:39.410Z,2.87
2018-04-06T00:14:07.370Z,3.03
2018-04-06T00:16:35.343Z,4.10
2018-04-06T00:19:03.295Z,3.30
2018-04-06T00:21:31.245Z,2.60
2018-04-06T00:23:59.201Z,3.65
2018-04-06T00:26:27.215Z,3.28
2018-04-06T00:28:55.162Z,2.78
2018-04-06T00:31:23.112Z,3.08
2018-04-06T00:33:52.139Z,2.92
2018-04-06T00:36:20.132Z,3.58
2018-04-06T00:38:48.125Z,3.10
2018-04-06T00:41:16.128Z,3.00
2018-04-06T00:43:44.132Z,3.62
2018-04-06T00:46:12.084Z,3.25
2018-04-06T00:48:41.118Z,3.37
2018-04-06T00:51:09.103Z,3.17
2018-04-06T00:53:43.212Z,3.10
2018-04-06T00:56:11.199Z,2.55
2018-04-06T00:58:39.186Z,2.90
2018-04-06T01:01:07.180Z,3.20
2018-04-06T01:03:35.160Z,3.60
2018-04-06T01:06:04.206Z,2.97
2018-04-06T01:08:32.196Z,2.95
2018-04-06T01:11:00.206Z,2.70
2018-04-06T01:13:28.173Z,3.00
2018-04-06T01:15:56.172Z,3.60
2018-04-06T01:18:24.160Z,2.95
2018-04-06T01:20:52.139Z,2.87
2018-04-06T01:23:20.108Z,3.20
2018-04-06T01:25:48.105Z,3.10
2018-04-06T01:28:16.092Z,3.22
2018-04-06T01:30:44.080Z,3.20
2018-04-06T01:33:12.061Z,3.20
2018-04-06T01:35:40.045Z,3.97
2018-04-06T01:38:08.026Z,3.03
2018-04-06T01:40:35.992Z,3.62
2018-04-06T01:43:03.987Z,3.97
2018-04-06T01:45:31.988Z,2.85
2018-04-06T01:47:59.970Z,3.75
2018-04-06T01:50:27.990Z,3.08
2018-04-06T01:52:56.041Z,3.10
2018-04-06T01:55:24.023Z,3.83
2018-04-06T01:57:51.999Z,3.25
2018-04-06T02:00:19.956Z,3.30
2018-04-06T02:02:47.966Z,2.80
2018-04-06T02:05:15.972Z,3.05
2018-04-06T02:07:43.940Z,3.67
2018-04-06T02:10:11.917Z,3.92
2018-04-06T02:12:39.912Z,5.50
2018-04-06T02:15:07.903Z,4.40
2018-04-06T02:17:35.920Z,4.55
2018-04-06T02:20:03.892Z,3.70
2018-04-06T02:22:31.887Z,3.33
2018-04-06T02:24:59.878Z,3.00
2018-04-06T02:27:27.895Z,3.30
2018-04-06T02:29:55.865Z,3.65
2018-04-06T02:32:23.886Z,3.60
2018-04-06T02:34:51.832Z,3.70
2018-04-06T02:37:20.870Z,3.40
2018-04-06T02:39:48.870Z,4.07
2018-04-06T02:42:16.845Z,5.78
2018-04-06T02:44:44.817Z,5.60
2018-04-06T02:47:12.817Z,4.35
2018-04-06T02:49:40.777Z,5.12
2018-04-06T02:52:08.748Z,5.20
2018-04-06T02:54:37.723Z,4.65
2018-04-06T02:57:05.712Z,5.20
2018-04-06T02:59:33.722Z,4.30
2018-04-06T03:02:01.729Z,4.57
2018-04-06T03:04:29.696Z,4.32
2018-04-06T03:06:57.689Z,5.05
2018-04-06T03:09:25.703Z,3.65
2018-04-06T03:11:53.666Z,4.10
2018-04-06T03:14:21.663Z,3.50
2018-04-06T03:16:49.636Z,4.15
2018-04-06T03:19:18.604Z,3.92
2018-04-06T03:21:46.613Z,5.47
2018-04-06T03:24:14.567Z,4.07
2018-04-06T03:26:42.529Z,4.12
2018-04-06T03:29:10.535Z,3.80
2018-04-06T03:31:38.530Z,3.62
2018-04-06T03:34:06.504Z,3.37
2018-04-06T03:36:34.504Z,4.78
2018-04-06T03:39:02.509Z,3.87
2018-04-06T03:41:30.533Z,4.20
2018-04-06T03:43:58.516Z,5.10
2018-04-06T03:46:26.511Z,4.62
2018-04-06T03:48:54.527Z,4.05
2018-04-06T03:51:22.507Z,3.42
2018-04-06T03:53:50.524Z,4.80
2018-04-06T03:56:18.501Z,3.90
2018-04-06T03:58:46.441Z,4.25
2018-04-06T04:01:14.416Z,4.70
2018-04-06T04:03:42.408Z,4.60
2018-04-06T04:06:10.346Z,4.65
2018-04-06T04:08:38.317Z,3.90
2018-04-06T04:11:06.284Z,4.60
2018-04-06T04:13:34.235Z,3.72
2018-04-06T04:16:02.259Z,3.80
2018-04-06T04:18:30.209Z,5.03
2018-04-06T04:20:58.196Z,4.43
2018-04-06T04:23:26.167Z,5.12
2018-04-06T04:25:54.104Z,4.97
2018-04-06T04:28:22.056Z,5.55
2018-04-06T04:30:50.081Z,4.82
2018-04-06T04:33:18.092Z,4.90
2018-04-06T04:35:46.072Z,5.32
2018-04-06T04:38:14.100Z,5.20
2018-04-06T04:40:42.075Z,5.10
2018-04-06T04:43:10.059Z,5.82
2018-04-06T04:45:38.096Z,5.55
2018-04-06T04:48:06.057Z,5.43
2018-04-06T04:50:34.046Z,4.75
2018-04-06T04:53:02.040Z,5.05
2018-04-06T04:55:30.033Z,5.28
2018-04-06T04:57:58.047Z,5.25
2018-04-06T05:00:26.057Z,5.70
2018-04-06T05:02:54.045Z,5.57
2018-04-06T05:05:22.016Z,6.45
2018-04-06T05:07:49.975Z,6.95
2018-04-06T05:10:18.979Z,5.30
2018-04-06T05:12:46.957Z,4.82
2018-04-06T05:15:14.940Z,6.53
2018-04-06T05:17:42.910Z,6.40
2018-04-06T05:20:10.864Z,6.85
2018-04-06T05:22:38.873Z,7.32
2018-04-06T05:25:06.839Z,6.87
2018-04-06T05:27:34.799Z,6.85
2018-04-06T05:30:02.846Z,7.03
2018-04-06T05:32:30.815Z,7.50
2018-04-06T05:34:58.860Z,6.95
2018-04-06T05:37:26.891Z,8.43
2018-04-06T05:39:54.861Z,7.87
2018-04-06T05:42:22.864Z,8.70
2018-04-06T05:44:51.968Z,6.95
2018-04-06T05:47:19.925Z,6.75
2018-04-06T05:49:47.909Z,7.55
2018-04-06T05:52:16.897Z,7.05
2018-04-06T05:54:44.894Z,7.47
2018-04-06T05:57:12.882Z,6.45
2018-04-06T05:59:40.819Z,6.50
2018-04-06T06:02:08.840Z,6.78
2018-04-06T06:04:36.817Z,5.70
2018-04-06T06:07:04.768Z,6.80
2018-04-06T06:09:32.789Z,6.97
2018-04-06T06:12:00.760Z,5.75
2018-04-06T06:14:28.750Z,8.00
2018-04-06T06:16:56.728Z,6.47
2018-04-06T06:19:24.675Z,6.75
2018-04-06T06:21:52.644Z,6.37
2018-04-06T06:24:21.694Z,5.32
2018-04-06T06:26:50.780Z,6.90
2018-04-06T06:29:18.732Z,6.60
2018-04-06T06:31:46.688Z,7.57
2018-04-06T06:34:14.649Z,6.85
2018-04-06T06:36:42.614Z,5.60
2018-04-06T06:39:10.620Z,6.25
2018-04-06T06:41:38.613Z,5.68
2018-04-06T06:44:06.584Z,5.35
2018-04-06T06:46:34.565Z,5.30
2018-04-06T06:49:02.568Z,6.72
2018-04-06T06:51:30.527Z,6.10
2018-04-06T06:53:59.518Z,6.12
2018-04-06T06:56:27.516Z,6.28
2018-04-06T06:58:55.469Z,5.28
2018-04-06T07:01:23.472Z,6.00
2018-04-06T07:03:51.480Z,5.10
2018-04-06T07:06:19.464Z,5.40
2018-04-06T07:08:47.440Z,4.72
2018-04-06T07:11:15.468Z,6.07
2018-04-06T07:13:43.446Z,4.80
2018-04-06T07:16:11.432Z,5.47
2018-04-06T07:18:39.415Z,5.82
2018-04-06T07:21:07.396Z,4.95
2018-04-06T07:23:35.402Z,5.20
2018-04-06T07:26:03.372Z,5.47
2018-04-06T07:28:31.339Z,5.43
2018-04-06T07:30:59.296Z,5.10
2018-04-06T07:33:27.288Z,5.78
2018-04-06T07:35:55.308Z,6.07
2018-04-06T07:38:23.290Z,6.32
2018-04-06T07:40:51.313Z,5.60
2018-04-06T07:43:19.287Z,6.40
2018-04-06T07:45:47.263Z,4.85
2018-04-06T07:48:15.291Z,5.57
2018-04-06T07:50:43.265Z,5.22
2018-04-06T07:53:11.252Z,5.25
2018-04-06T07:55:39.257Z,5.47
2018-04-06T07:58:07.196Z,5.12
2018-04-06T08:00:35.169Z,4.80
2018-04-06T08:03:03.179Z,5.25
2018-04-06T08:05:31.174Z,5.25
2018-04-06T08:07:59.163Z,5.20
2018-04-06T08:10:27.152Z,5.82
2018-04-06T08:12:55.132Z,4.30
2018-04-06T08:15:23.076Z,4.90
2018-04-06T08:17:51.055Z,5.23
2018-04-06T08:20:19.063Z,4.20
2018-04-06T08:22:47.026Z,3.83
2018-04-06T08:25:15.023Z,4.30
2018-04-06T08:27:43.008Z,4.17
2018-04-06T08:30:10.986Z,4.07
2018-04-06T08:32:38.969Z,4.20
2018-04-06T08:35:06.962Z,3.07
2018-04-06T08:37:34.940Z,3.27
2018-04-06T08:40:02.984Z,3.60
2018-04-06T08:42:30.951Z,3.43
2018-04-06T08:44:58.958Z,3.70
2018-04-06T08:47:26.925Z,3.70
2018-04-06T08:49:54.933Z,3.10
2018-04-06T08:52:22.899Z,3.63
2018-04-06T08:54:51.972Z,4.10
2018-04-06T08:57:19.928Z,3.27
2018-04-06T08:59:47.899Z,2.60
2018-04-06T09:02:15.892Z,3.30
2018-04-06T09:04:43.852Z,3.70
2018-04-06T09:07:11.797Z,3.70
2018-04-06T09:09:39.818Z,3.20
2018-04-06T09:12:07.801Z,3.17
2018-04-06T09:14:35.776Z,3.67
2018-04-06T09:17:03.766Z,2.90
2018-04-06T09:19:31.744Z,3.23
2018-04-06T09:21:59.745Z,3.63
2018-04-06T09:24:27.735Z,3.00
2018-04-06T09:26:55.699Z,3.33
2018-04-06T09:29:23.641Z,3.60
2018-04-06T09:31:51.656Z,2.63
2018-04-06T09:34:19.588Z,3.53
2018-04-06T09:36:47.565Z,2.83
2018-04-06T09:39:15.571Z,3.00
2018-04-06T09:41:43.532Z,2.87
2018-04-06T09:44:11.527Z,2.73
2018-04-06T09:46:39.496Z,2.50
2018-04-06T09:49:07.512Z,2.40
2018-04-06T09:51:35.495Z,2.80
2018-04-06T09:54:03.465Z,2.40
2018-04-06T09:56:31.417Z,2.33
2018-04-06T09:58:59.429Z,2.30
2018-04-06T10:01:33.410Z,3.03
2018-04-06T10:04:01.388Z,2.70
2018-04-06T10:06:29.380Z,2.43
2018-04-06T10:08:57.348Z,2.27
2018-04-06T10:11:25.381Z,2.67
2018-04-06T10:13:53.367Z,1.80
2018-04-06T10:16:21.470Z,2.50
2018-04-06T10:18:49.580Z,3.00
2018-04-06T10:21:17.632Z,2.47
2018-04-06T10:23:45.592Z,2.30
2018-04-06T10:26:13.686Z,1.80
2018-04-06T10:28:41.649Z,2.83
2018-04-06T10:31:09.691Z,1.70
2018-04-06T10:33:37.750Z,2.00
2018-04-06T10:36:05.742Z,2.33
2018-04-06T10:38:33.890Z,1.77
2018-04-06T10:41:01.959Z,1.80
2018-04-06T10:43:29.910Z,1.87
2018-04-06T10:45:57.896Z,2.43
2018-04-06T10:48:25.851Z,3.47
2018-04-06T10:50:53.821Z,1.73
2018-04-06T10:53:21.841Z,2.20
2018-04-06T10:55:49.815Z,2.07
2018-04-06T10:58:17.810Z,1.23
2018-04-06T11:00:45.810Z,2.00
2018-04-06T11:03:13.780Z,1.80
2018-04-06T11:05:41.804Z,1.93
2018-04-06T11:08:09.800Z,1.77
2018-04-06T11:10:37.784Z,1.43
2018-04-06T11:13:05.833Z,2.40
2018-04-06T11:15:33.838Z,1.90
2018-04-06T11:18:02.924Z,1.63
2018-04-06T11:20:30.927Z,2.10
2018-04-06T11:22:58.949Z,1.70
2018-04-06T11:25:26.908Z,2.63
2018-04-06T11:27:54.896Z,2.13
2018-04-06T11:30:22.877Z,1.33
2018-04-06T11:32:50.867Z,1.20
2018-04-06T11:35:18.860Z,1.63
2018-04-06T11:37:46.887Z,1.40
2018-04-06T11:40:14.918Z,1.97
2018-04-06T11:42:42.871Z,2.00
2018-04-06T11:45:10.841Z,1.80
2018-04-06T11:47:38.840Z,1.43
2018-04-06T11:50:06.816Z,2.30
2018-04-06T11:52:34.799Z,2.47
2018-04-06T11:55:02.801Z,1.80
2018-04-06T11:57:31.884Z,1.70
2018-04-06T11:59:59.844Z,1.80
2018-04-06T12:02:27.835Z,1.73
2018-04-06T12:04:55.847Z,1.20
2018-04-06T12:07:23.888Z,1.70
2018-04-06T12:09:51.951Z,1.60
2018-04-06T12:12:19.952Z,2.00
2018-04-06T12:14:47.928Z,1.67
2018-04-06T12:17:15.891Z,1.40
2018-04-06T12:19:43.852Z,1.30
2018-04-06T12:22:11.846Z,1.20
2018-04-06T12:24:39.844Z,1.60
2018-04-06T12:27:07.831Z,1.63
2018-04-06T12:29:35.779Z,1.60
2018-04-06T12:32:03.769Z,1.60
2018-04-06T12:34:31.737Z,1.43
2018-04-06T12:36:59.755Z,1.80
2018-04-06T12:39:27.742Z,1.20
2018-04-06T12:41:55.704Z,1.67
2018-04-06T12:44:23.672Z,1.87
2018-04-06T12:46:51.628Z,1.50
2018-04-06T12:49:19.564Z,1.40
2018-04-06T12:51:47.548Z,1.80
2018-04-06T12:54:15.520Z,1.63
2018-04-06T12:56:43.498Z,1.37
2018-04-06T12:59:11.472Z,1.70
2018-04-06T13:01:39.453Z,1.93
2018-04-06T13:04:07.468Z,1.60
2018-04-06T13:06:35.460Z,1.67
2018-04-06T13:09:03.443Z,1.27
2018-04-06T13:11:31.440Z,1.50
2018-04-06T13:13:59.393Z,1.20
2018-04-06T13:16:27.360Z,2.27
2018-04-06T13:18:55.360Z,1.30
2018-04-06T13:21:23.328Z,1.40
2018-04-06T13:23:51.321Z,1.53
2018-04-06T13:26:19.273Z,1.87
2018-04-06T13:28:47.248Z,1.70
2018-04-06T13:31:15.244Z,1.83
2018-04-06T13:33:43.209Z,1.40
2018-04-06T13:36:11.204Z,1.40
2018-04-06T13:38:39.191Z,1.27
2018-04-06T13:41:07.168Z,1.50
2018-04-06T13:43:35.147Z,1.57
2018-04-06T13:46:03.112Z,1.40
2018-04-06T13:48:31.080Z,1.20
2018-04-06T13:51:01.099Z,1.10
2018-04-06T13:53:29.043Z,1.10
2018-04-06T13:55:56.976Z,1.60
2018-04-06T13:58:24.960Z,1.77
2018-04-06T14:00:52.976Z,1.50
2018-04-06T14:03:20.912Z,1.73
2018-04-06T14:05:48.908Z,1.27
2018-04-06T14:08:16.909Z,1.63
2018-04-06T14:10:44.945Z,1.23
2018-04-06T14:13:12.928Z,1.43
2018-04-06T14:15:40.876Z,1.50
2018-04-06T14:18:08.847Z,1.40
2018-04-06T14:20:36.876Z,1.97
2018-04-06T14:23:04.857Z,1.83
2018-04-06T14:25:32.939Z,1.50
2018-04-06T14:28:00.927Z,1.80
2018-04-06T14:30:28.903Z,1.50
2018-04-06T14:32:56.883Z,2.00
2018-04-06T14:35:24.868Z,1.90
2018-04-06T14:37:52.835Z,1.90
2018-04-06T14:40:20.790Z,2.50
2018-04-06T14:42:48.724Z,2.17
2018-04-06T14:45:16.760Z,2.30
2018-04-06T14:47:44.728Z,1.93
2018-04-06T14:50:12.694Z,1.63
2018-04-06T14:52:40.696Z,2.10
2018-04-06T14:55:08.684Z,2.00
2018-04-06T14:57:36.680Z,1.77
2018-04-06T15:00:04.684Z,1.83
2018-04-06T15:02:32.672Z,2.10
2018-04-06T15:05:00.690Z,2.20
2018-04-06T15:07:28.648Z,2.40
2018-04-06T15:09:56.580Z,2.53
2018-04-06T15:12:24.517Z,2.47
2018-04-06T15:14:52.484Z,2.43
2018-04-06T15:17:20.456Z,2.60
2018-04-06T15:19:48.429Z,2.63
2018-04-06T15:22:16.418Z,2.37
2018-04-06T15:24:44.380Z,2.80
2018-04-06T15:27:12.309Z,2.30
2018-04-06T15:29:40.293Z,2.55
2018-04-06T15:32:08.304Z,2.50
2018-04-06T15:34:36.316Z,2.33
2018-04-06T15:37:04.357Z,2.30
2018-04-06T15:39:32.313Z,2.50
2018-04-06T15:42:00.263Z,2.30
2018-04-06T15:44:28.281Z,2.90
2018-04-06T15:46:56.364Z,3.07
2018-04-06T15:49:24.371Z,3.23
2018-04-06T15:51:52.387Z,3.27
2018-04-06T15:54:20.339Z,2.90
2018-04-06T15:56:48.335Z,3.13
2018-04-06T15:59:16.364Z,3.33
2018-04-06T16:04:36.855Z,2.80
2018-04-06T16:07:04.872Z,2.80
2018-04-06T16:09:32.936Z,3.60
2018-04-06T16:12:00.912Z,2.83
2018-04-06T16:14:28.920Z,3.80
2018-04-06T16:16:56.880Z,4.10
2018-04-06T16:19:24.846Z,4.13
2018-04-06T16:21:52.869Z,4.00
2018-04-06T16:24:20.877Z,3.37
2018-04-06T16:26:48.820Z,3.53
2018-04-06T16:29:16.832Z,3.70
2018-04-06T16:31:44.780Z,3.17
2018-04-06T16:34:12.788Z,3.03
2018-04-06T16:36:40.758Z,3.70
2018-04-06T16:39:08.745Z,3.30
2018-04-06T16:41:36.710Z,3.73
2018-04-06T16:44:04.702Z,3.60
2018-04-06T16:46:32.689Z,4.50
2018-04-06T16:49:00.666Z,4.00
2018-04-06T16:51:28.634Z,3.47
2018-04-06T16:53:56.650Z,3.33
2018-04-06T16:56:25.624Z,3.50
2018-04-06T16:58:53.617Z,3.30
2018-04-06T17:01:21.555Z,3.27
2018-04-06T17:03:49.487Z,4.80
2018-04-06T17:06:17.561Z,3.37
2018-04-06T17:08:46.567Z,3.43
2018-04-06T17:11:14.531Z,3.13
2018-04-06T17:13:42.654Z,3.20
2018-04-06T17:16:10.616Z,2.93
2018-04-06T17:18:38.588Z,3.90
2018-04-06T17:21:06.576Z,3.17
2018-04-06T17:23:34.564Z,3.03
2018-04-06T17:26:02.537Z,3.43
2018-04-06T17:28:30.545Z,3.40
2018-04-06T17:30:58.483Z,3.37
2018-04-06T17:33:26.451Z,4.00
2018-04-06T17:35:54.463Z,3.67
2018-04-06T17:38:22.427Z,3.27
2018-04-06T17:40:51.277Z,3.17
2018-04-06T17:43:19.304Z,3.33
2018-04-06T17:45:51.591Z,4.00
2018-04-06T17:48:21.184Z,3.37
2018-04-06T17:50:49.444Z,3.80
2018-04-06T17:53:17.400Z,4.20
2018-04-06T17:55:45.401Z,4.33
2018-04-06T17:58:13.740Z,3.20
2018-04-06T18:00:41.761Z,3.10
2018-04-06T18:03:10.863Z,3.93
2018-04-06T18:05:38.854Z,3.17
2018-04-06T18:08:06.823Z,3.90
2018-04-06T18:10:34.803Z,3.53
2018-04-06T18:13:02.854Z,3.83
2018-04-06T18:15:30.843Z,3.90
2018-04-06T18:17:58.832Z,3.67
2018-04-06T18:20:26.784Z,2.80
2018-04-06T18:22:54.819Z,3.83
2018-04-06T18:25:22.792Z,3.73
2018-04-06T18:27:50.787Z,3.97
2018-04-06T18:30:18.707Z,3.10
2018-04-06T18:32:46.684Z,3.30
2018-04-06T18:35:14.664Z,2.80
2018-04-06T18:37:42.637Z,3.43
2018-04-06T18:40:10.716Z,3.47
2018-04-06T18:42:38.656Z,2.80
2018-04-06T18:45:06.609Z,3.20
2018-04-06T18:47:34.599Z,3.90
2018-04-06T18:50:02.581Z,3.27
2018-04-06T18:52:30.560Z,3.23
2018-04-06T18:54:58.541Z,3.00
2018-04-06T18:57:26.520Z,2.87
2018-04-06T18:59:54.495Z,2.87
2018-04-06T19:02:22.511Z,2.20
2018-04-06T19:04:50.496Z,3.20
2018-04-06T19:07:18.464Z,3.80
2018-04-06T19:09:46.456Z,2.83
2018-04-06T19:12:14.440Z,3.50
2018-04-06T19:14:42.424Z,3.47
2018-04-06T19:17:10.391Z,2.90
2018-04-06T19:19:38.396Z,2.80
2018-04-06T19:22:06.487Z,2.03
2018-04-06T19:24:34.458Z,3.00
2018-04-06T19:27:02.426Z,3.90
2018-04-06T19:29:30.379Z,2.80
2018-04-06T19:31:58.420Z,2.63
2018-04-06T19:34:26.363Z,3.77
2018-04-06T19:36:54.342Z,2.77
2018-04-06T19:39:22.330Z,2.63
2018-04-06T19:41:50.288Z,3.47
2018-04-06T19:44:18.315Z,2.37
2018-04-06T19:46:46.279Z,3.33
2018-04-06T19:49:14.282Z,2.57
2018-04-06T19:51:42.239Z,2.77
2018-04-06T19:54:10.243Z,2.50
2018-04-06T19:56:38.273Z,2.63
2018-04-06T19:59:06.215Z,2.43
2018-04-06T20:01:35.288Z,3.27
2018-04-06T20:04:03.253Z,2.47
2018-04-06T20:06:31.248Z,2.17
2018-04-06T20:08:59.273Z,2.20
2018-04-06T20:11:27.224Z,2.47
2018-04-06T20:13:55.233Z,3.90
2018-04-06T20:16:23.323Z,2.27
2018-04-06T20:18:51.357Z,2.50
2018-04-06T20:21:19.317Z,2.40
2018-04-06T20:23:47.343Z,3.20
2018-04-06T20:26:15.316Z,2.90
2018-04-06T20:28:43.301Z,2.70
2018-04-06T20:31:11.318Z,3.50
2018-04-06T20:33:39.299Z,2.87
2018-04-06T20:36:07.387Z,2.33
2018-04-06T20:38:35.375Z,2.77
2018-04-06T20:41:04.390Z,2.70
2018-04-06T20:43:32.389Z,2.80
2018-04-06T20:46:00.363Z,3.00
2018-04-06T20:48:28.324Z,2.83
2018-04-06T20:50:56.283Z,3.37
2018-04-06T20:53:24.247Z,3.50
2018-04-06T20:55:53.392Z,3.33
2018-04-06T20:58:21.365Z,3.00
2018-04-06T21:00:49.412Z,2.83
2018-04-06T21:03:17.376Z,2.70
2018-04-06T21:05:45.395Z,2.60
2018-04-06T21:08:13.408Z,3.33
2018-04-06T21:10:41.368Z,3.20
2018-04-06T21:13:09.432Z,3.17
2018-04-06T21:15:37.460Z,2.30
2018-04-06T21:18:05.593Z,2.90
2018-04-06T21:20:33.741Z,2.90
2018-04-06T21:23:01.787Z,2.80
2018-04-06T21:25:29.780Z,2.50
2018-04-06T21:27:57.742Z,3.03
2018-04-06T21:30:25.811Z,3.40
2018-04-06T21:32:53.776Z,3.17
2018-04-06T21:35:21.762Z,2.77
2018-04-06T21:37:49.803Z,3.27
2018-04-06T21:40:17.788Z,2.57
2018-04-06T21:42:45.799Z,2.77
2018-04-06T21:45:13.992Z,3.17
2018-04-06T21:47:42.001Z,2.97
2018-04-06T21:50:09.964Z,3.50
2018-04-06T21:52:37.972Z,3.53
2018-04-06T21:55:05.940Z,3.20
2018-04-06T21:57:33.957Z,3.47
2018-04-06T22:00:01.931Z,2.70
2018-04-06T22:02:29.907Z,3.30
2018-04-06T22:04:57.900Z,3.93
2018-04-06T22:07:25.887Z,3.57
2018-04-06T22:09:53.938Z,4.33
2018-04-06T22:12:21.949Z,3.43
2018-04-06T22:14:49.931Z,3.30
2018-04-06T22:17:17.903Z,3.63
2018-04-06T22:19:45.847Z,3.60
2018-04-06T22:22:13.811Z,3.60
2018-04-06T22:24:41.751Z,3.70
2018-04-06T22:27:09.703Z,2.83
2018-04-06T22:29:37.696Z,3.43
2018-04-06T22:32:05.692Z,3.60
2018-04-06T22:34:33.708Z,3.17
2018-04-06T22:37:01.701Z,3.43
2018-04-06T22:39:29.655Z,3.03
2018-04-06T22:41:57.616Z,3.27
2018-04-06T22:44:25.608Z,3.35
2018-04-06T22:46:53.621Z,3.65
2018-04-06T22:49:21.602Z,3.40
2018-04-06T22:51:49.607Z,3.40
2018-04-06T22:54:17.556Z,3.65
2018-04-06T22:56:45.513Z,4.07
2018-04-06T22:59:13.522Z,3.63
2018-04-06T23:01:41.500Z,4.07
2018-04-06T23:04:10.480Z,2.97
2018-04-06T23:06:38.461Z,3.78
2018-04-06T23:09:06.479Z,2.97
2018-04-06T23:11:34.427Z,3.73
2018-04-06T23:14:02.434Z,3.20
2018-04-06T23:16:30.430Z,3.33
2018-04-06T23:18:58.386Z,3.97
2018-04-06T23:21:26.503Z,3.28
2018-04-06T23:23:54.423Z,4.50
2018-04-06T23:26:22.447Z,3.75
2018-04-06T23:28:50.427Z,3.75
2018-04-06T23:31:18.402Z,3.12
2018-04-06T23:33:46.385Z,2.70
2018-04-06T23:36:14.370Z,4.15
2018-04-06T23:38:42.352Z,3.30
2018-04-06T23:41:10.323Z,4.05
2018-04-06T23:43:38.319Z,3.50
2018-04-06T23:46:06.303Z,3.40
2018-04-06T23:48:34.279Z,3.60
2018-04-06T23:51:02.256Z,3.85
2018-04-06T23:53:30.248Z,3.50
2018-04-06T23:55:58.240Z,3.15
2018-04-06T23:58:26.227Z,4.00
